RYR40TF EIDW-LEPA
Flight info
| Callsign | RYR40TF |
|---|---|
| Flight time | 1h 43m |
| Altitude | 31000 |
| Route | PESIT2J PESIT DCT BAKUR DCT GUBJE DCT GISOK DCT TACQI DCT MANIG DCT BADUR DCT KORER UM616 TUPAR DCT CNA DCT SECHE DCT AGN DCT TOU DCT LOMRA DCT ROCAN DCT IBRAP N13 LORES |
| Aircraft | B738/M-SDE2E3FGHIRWXY/LB1 |
Departure
| Time | 2026-05-01 09:20 |
|---|---|
| Airport | Dublin Airport (EIDW) |
Arrival
| Time | 2026-05-01 11:03 |
|---|---|
| Airport | Palma de Mallorca Airport (LEPA) |
| Time | Latitude | Longitude | Altitude | Speed | Heading |
|---|---|---|---|---|---|
| 2026-05-01 09:01 | 53.42798 | -6.24892 | 219 ft | 0 kts | 86° |
| 2026-05-01 09:08 | 53.42798 | -6.24900 | 210 ft | 3 kts | 86° |
| 2026-05-01 09:08 | 53.42795 | -6.24944 | 214 ft | 4 kts | 77° |
| 2026-05-01 09:09 | 53.42786 | -6.24986 | 211 ft | 4 kts | 52° |
| 2026-05-01 09:09 | 53.42768 | -6.25005 | 212 ft | 2 kts | 4° |
| 2026-05-01 09:09 | 53.42745 | -6.25005 | 210 ft | 3 kts | 338° |
| 2026-05-01 09:09 | 53.42725 | -6.24989 | 214 ft | 3 kts | 327° |
| 2026-05-01 09:10 | 53.42723 | -6.24986 | 217 ft | 2 kts | 328° |
| 2026-05-01 09:13 | 53.42733 | -6.24997 | 210 ft | 4 kts | 327° |
| 2026-05-01 09:13 | 53.42771 | -6.25042 | 212 ft | 9 kts | 320° |
| 2026-05-01 09:13 | 53.42794 | -6.25160 | 210 ft | 12 kts | 273° |
| 2026-05-01 09:13 | 53.42831 | -6.25269 | 210 ft | 11 kts | 334° |
| 2026-05-01 09:14 | 53.42903 | -6.25321 | 214 ft | 11 kts | 337° |
| 2026-05-01 09:14 | 53.42972 | -6.25372 | 217 ft | 11 kts | 335° |
| 2026-05-01 09:14 | 53.43039 | -6.25423 | 210 ft | 10 kts | 335° |
| 2026-05-01 09:14 | 53.43105 | -6.25472 | 213 ft | 10 kts | 338° |
| 2026-05-01 09:15 | 53.43170 | -6.25516 | 210 ft | 10 kts | 338° |
| 2026-05-01 09:15 | 53.43233 | -6.25561 | 215 ft | 10 kts | 335° |
| 2026-05-01 09:15 | 53.43298 | -6.25610 | 219 ft | 12 kts | 336° |
| 2026-05-01 09:15 | 53.43387 | -6.25676 | 218 ft | 11 kts | 338° |
| 2026-05-01 09:16 | 53.43402 | -6.25663 | 214 ft | 3 kts | 50° |
| 2026-05-01 09:16 | 53.43409 | -6.25606 | 210 ft | 7 kts | 89° |
| 2026-05-01 09:16 | 53.43404 | -6.25502 | 210 ft | 11 kts | 95° |
| 2026-05-01 09:17 | 53.43386 | -6.25177 | 214 ft | 17 kts | 94° |
| 2026-05-01 09:17 | 53.43376 | -6.24975 | 210 ft | 17 kts | 96° |
| 2026-05-01 09:17 | 53.43358 | -6.24618 | 216 ft | 11 kts | 94° |
| 2026-05-01 09:18 | 53.43376 | -6.24570 | 212 ft | 3 kts | 23° |
| 2026-05-01 09:18 | 53.43435 | -6.24556 | 211 ft | 8 kts | 6° |
| 2026-05-01 09:19 | 53.43530 | -6.24692 | 216 ft | 17 kts | 274° |
| 2026-05-01 09:19 | 53.43562 | -6.25265 | 217 ft | 86 kts | 275° |
| 2026-05-01 09:19 | 53.43639 | -6.26643 | 210 ft | 149 kts | 275° |
| 2026-05-01 09:20 | 53.44031 | -6.30729 | 1302 ft | 184 kts | 289° |
| 2026-05-01 09:20 | 53.45701 | -6.34244 | 2518 ft | 216 kts | 314° |
| 2026-05-01 09:21 | 53.47891 | -6.38125 | 3243 ft | 244 kts | 302° |
| 2026-05-01 09:21 | 53.48870 | -6.40495 | 3849 ft | 249 kts | 302° |
| 2026-05-01 09:21 | 53.50867 | -6.45654 | 4950 ft | 275 kts | 287° |
| 2026-05-01 09:22 | 53.50487 | -6.51637 | 6556 ft | 261 kts | 231° |
| 2026-05-01 09:22 | 53.47504 | -6.54533 | 8119 ft | 254 kts | 184° |
| 2026-05-01 09:23 | 53.45741 | -6.54263 | 8820 ft | 257 kts | 166° |
| 2026-05-01 09:23 | 53.42321 | -6.52243 | 10338 ft | 263 kts | 161° |
| 2026-05-01 09:24 | 53.38614 | -6.49917 | 10803 ft | 307 kts | 161° |
| 2026-05-01 09:24 | 53.36560 | -6.48665 | 11220 ft | 319 kts | 161° |
| 2026-05-01 09:24 | 53.32323 | -6.46122 | 12606 ft | 326 kts | 161° |
| 2026-05-01 09:25 | 53.28139 | -6.43160 | 14017 ft | 332 kts | 156° |
| 2026-05-01 09:25 | 53.23922 | -6.39846 | 15282 ft | 337 kts | 156° |
| 2026-05-01 09:26 | 53.21790 | -6.38173 | 15882 ft | 340 kts | 156° |
| 2026-05-01 09:26 | 53.17472 | -6.34815 | 16989 ft | 346 kts | 157° |
| 2026-05-01 09:26 | 53.15278 | -6.33118 | 17650 ft | 348 kts | 157° |
| 2026-05-01 09:27 | 53.11597 | -6.30279 | 18619 ft | 353 kts | 157° |
| 2026-05-01 09:27 | 53.09354 | -6.28554 | 19162 ft | 356 kts | 157° |
| 2026-05-01 09:27 | 53.07101 | -6.26822 | 19700 ft | 358 kts | 157° |
| 2026-05-01 09:28 | 53.04831 | -6.25080 | 20205 ft | 361 kts | 157° |
| 2026-05-01 09:28 | 53.02538 | -6.23322 | 20738 ft | 364 kts | 157° |
| 2026-05-01 09:28 | 53.00228 | -6.21552 | 21220 ft | 367 kts | 157° |
| 2026-05-01 09:28 | 52.97895 | -6.19768 | 21715 ft | 370 kts | 157° |
| 2026-05-01 09:29 | 52.93188 | -6.16170 | 22671 ft | 375 kts | 157° |
| 2026-05-01 09:29 | 52.90838 | -6.14366 | 23095 ft | 379 kts | 157° |
| 2026-05-01 09:30 | 52.85997 | -6.10645 | 23300 ft | 386 kts | 157° |
| 2026-05-01 09:30 | 52.83563 | -6.08776 | 23811 ft | 386 kts | 157° |
| 2026-05-01 09:30 | 52.78677 | -6.05032 | 24688 ft | 387 kts | 157° |
| 2026-05-01 09:31 | 52.76224 | -6.03157 | 25035 ft | 390 kts | 157° |
| 2026-05-01 09:31 | 52.73780 | -6.01292 | 25379 ft | 392 kts | 157° |
| 2026-05-01 09:31 | 52.68792 | -5.97493 | 26103 ft | 396 kts | 157° |
| 2026-05-01 09:32 | 52.66281 | -5.95583 | 26441 ft | 398 kts | 157° |
| 2026-05-01 09:32 | 52.61231 | -5.91750 | 27343 ft | 396 kts | 157° |
| 2026-05-01 09:32 | 52.58768 | -5.89882 | 27849 ft | 394 kts | 157° |
| 2026-05-01 09:33 | 52.56272 | -5.87993 | 28299 ft | 393 kts | 157° |
| 2026-05-01 09:33 | 52.53782 | -5.86112 | 28722 ft | 393 kts | 157° |
| 2026-05-01 09:33 | 52.48822 | -5.82371 | 29636 ft | 390 kts | 157° |
| 2026-05-01 09:34 | 52.46353 | -5.80511 | 30067 ft | 390 kts | 157° |
| 2026-05-01 09:34 | 52.43916 | -5.78679 | 30410 ft | 390 kts | 157° |
| 2026-05-01 09:34 | 52.38948 | -5.75126 | 31045 ft | 388 kts | 163° |
| 2026-05-01 09:35 | 52.31144 | -5.71374 | 31152 ft | 387 kts | 165° |
| 2026-05-01 09:36 | 52.25980 | -5.68872 | 31170 ft | 386 kts | 165° |
| 2026-05-01 09:36 | 52.20954 | -5.65893 | 31173 ft | 387 kts | 159° |
| 2026-05-01 09:37 | 52.15976 | -5.62490 | 31171 ft | 387 kts | 159° |
| 2026-05-01 09:37 | 52.03526 | -5.54083 | 31176 ft | 388 kts | 157° |
| 2026-05-01 09:38 | 51.77481 | -5.33569 | 31181 ft | 391 kts | 156° |
| 2026-05-01 09:39 | 51.51501 | -5.13370 | 31191 ft | 394 kts | 153° |
| 2026-05-01 09:39 | 51.46720 | -5.07626 | 31206 ft | 398 kts | 141° |
| 2026-05-01 09:40 | 51.21826 | -4.72475 | 31198 ft | 399 kts | 142° |
| 2026-05-01 09:41 | 51.05410 | -4.49673 | 31189 ft | 400 kts | 142° |
| 2026-05-01 09:41 | 50.89579 | -4.33393 | 31195 ft | 398 kts | 150° |
| 2026-05-01 09:42 | 50.70740 | -4.14747 | 31200 ft | 401 kts | 150° |
| 2026-05-01 09:43 | 50.32609 | -3.77524 | 31208 ft | 404 kts | 150° |
| 2026-05-01 09:43 | 50.13496 | -3.59132 | 31199 ft | 406 kts | 150° |
| 2026-05-01 09:44 | 49.84551 | -3.31606 | 31220 ft | 406 kts | 150° |
| 2026-05-01 09:45 | 49.77149 | -3.25561 | 31223 ft | 403 kts | 163° |
| 2026-05-01 09:45 | 49.53860 | -3.18727 | 31218 ft | 402 kts | 170° |
| 2026-05-01 09:46 | 49.31827 | -3.12351 | 31227 ft | 403 kts | 170° |
| 2026-05-01 09:46 | 49.09777 | -3.06039 | 31231 ft | 403 kts | 170° |
| 2026-05-01 09:47 | 48.87676 | -2.99768 | 31228 ft | 404 kts | 170° |
| 2026-05-01 09:47 | 48.81795 | -2.98108 | 31160 ft | 406 kts | 170° |
| 2026-05-01 09:48 | 48.72150 | -2.95395 | 31215 ft | 406 kts | 170° |
| 2026-05-01 09:48 | 48.62325 | -2.91317 | 31223 ft | 407 kts | 164° |
| 2026-05-01 09:49 | 48.40559 | -2.81501 | 31212 ft | 410 kts | 164° |
| 2026-05-01 09:49 | 48.18562 | -2.71826 | 31211 ft | 412 kts | 164° |
| 2026-05-01 09:50 | 47.96647 | -2.62263 | 31211 ft | 414 kts | 165° |
| 2026-05-01 09:50 | 47.74491 | -2.52678 | 31207 ft | 415 kts | 165° |
| 2026-05-01 09:51 | 47.68233 | -2.48703 | 31218 ft | 417 kts | 146° |
| 2026-05-01 09:51 | 47.65992 | -2.45960 | 31204 ft | 418 kts | 135° |
| 2026-05-01 09:51 | 47.63752 | -2.42229 | 31218 ft | 419 kts | 132° |
| 2026-05-01 09:52 | 47.56734 | -2.29985 | 31203 ft | 420 kts | 131° |
| 2026-05-01 09:52 | 47.52937 | -2.23468 | 31216 ft | 420 kts | 132° |
| 2026-05-01 09:53 | 47.49105 | -2.16944 | 31208 ft | 421 kts | 132° |
| 2026-05-01 09:53 | 47.45250 | -2.10401 | 31211 ft | 422 kts | 132° |
| 2026-05-01 09:54 | 47.41383 | -2.03851 | 31211 ft | 422 kts | 132° |
| 2026-05-01 09:54 | 47.37515 | -1.97312 | 31208 ft | 423 kts | 132° |
| 2026-05-01 09:55 | 47.33661 | -1.90816 | 31212 ft | 424 kts | 132° |
| 2026-05-01 09:55 | 47.29772 | -1.84256 | 31213 ft | 424 kts | 132° |
| 2026-05-01 09:56 | 47.25898 | -1.77733 | 31212 ft | 425 kts | 132° |
| 2026-05-01 09:56 | 47.22003 | -1.71188 | 31209 ft | 425 kts | 132° |
| 2026-05-01 09:57 | 47.18091 | -1.64632 | 31212 ft | 426 kts | 132° |
| 2026-05-01 09:57 | 47.14007 | -1.58321 | 31218 ft | 426 kts | 139° |
| 2026-05-01 09:58 | 47.09546 | -1.52560 | 31215 ft | 427 kts | 140° |
| 2026-05-01 09:58 | 47.05081 | -1.46812 | 31214 ft | 428 kts | 139° |
| 2026-05-01 09:59 | 47.00631 | -1.40993 | 31213 ft | 429 kts | 139° |
| 2026-05-01 09:59 | 46.96179 | -1.35169 | 31215 ft | 429 kts | 139° |
| 2026-05-01 10:00 | 46.91746 | -1.29383 | 31228 ft | 430 kts | 139° |
| 2026-05-01 10:00 | 46.87275 | -1.23556 | 31232 ft | 430 kts | 139° |
| 2026-05-01 10:01 | 46.82792 | -1.17725 | 31238 ft | 431 kts | 139° |
| 2026-05-01 10:01 | 46.78333 | -1.11940 | 31237 ft | 431 kts | 139° |
| 2026-05-01 10:02 | 46.73845 | -1.06128 | 31237 ft | 432 kts | 140° |
| 2026-05-01 10:02 | 46.69351 | -1.00324 | 31233 ft | 432 kts | 140° |
| 2026-05-01 10:03 | 46.64833 | -0.94500 | 31235 ft | 433 kts | 140° |
| 2026-05-01 10:03 | 46.60318 | -0.88693 | 31226 ft | 433 kts | 140° |
| 2026-05-01 10:04 | 46.55795 | -0.82881 | 31220 ft | 434 kts | 140° |
| 2026-05-01 10:04 | 46.51308 | -0.77098 | 31214 ft | 434 kts | 140° |
| 2026-05-01 10:05 | 46.46786 | -0.71284 | 31215 ft | 434 kts | 140° |
| 2026-05-01 10:05 | 46.41947 | -0.66127 | 31218 ft | 431 kts | 154° |
| 2026-05-01 10:06 | 46.36361 | -0.63106 | 31218 ft | 427 kts | 165° |
| 2026-05-01 10:06 | 46.27834 | -0.59312 | 31210 ft | 427 kts | 165° |
| 2026-05-01 10:07 | 46.16561 | -0.54174 | 31214 ft | 426 kts | 164° |
| 2026-05-01 10:07 | 46.05279 | -0.49007 | 31212 ft | 425 kts | 165° |
| 2026-05-01 10:08 | 45.88363 | -0.41307 | 31217 ft | 423 kts | 165° |
| 2026-05-01 10:09 | 45.77138 | -0.36224 | 31212 ft | 422 kts | 165° |
| 2026-05-01 10:09 | 45.66773 | -0.31546 | 31215 ft | 421 kts | 163° |
| 2026-05-01 10:10 | 45.59796 | -0.27099 | 31205 ft | 423 kts | 155° |
| 2026-05-01 10:10 | 45.43973 | -0.15993 | 31218 ft | 422 kts | 156° |
| 2026-05-01 10:11 | 45.33403 | -0.08740 | 31223 ft | 421 kts | 156° |
| 2026-05-01 10:11 | 45.22872 | -0.01545 | 31221 ft | 420 kts | 156° |
| 2026-05-01 10:12 | 45.14084 | 0.04438 | 31221 ft | 419 kts | 156° |
| 2026-05-01 10:13 | 44.97332 | 0.15786 | 31222 ft | 417 kts | 156° |
| 2026-05-01 10:13 | 44.88617 | 0.21661 | 31235 ft | 416 kts | 156° |
| 2026-05-01 10:14 | 44.72947 | 0.32174 | 31232 ft | 415 kts | 156° |
| 2026-05-01 10:14 | 44.62499 | 0.39148 | 31231 ft | 415 kts | 156° |
| 2026-05-01 10:15 | 44.52065 | 0.46087 | 31222 ft | 414 kts | 156° |
| 2026-05-01 10:15 | 44.43067 | 0.52048 | 31219 ft | 414 kts | 156° |
| 2026-05-01 10:16 | 44.32609 | 0.58892 | 31205 ft | 415 kts | 156° |
| 2026-05-01 10:17 | 44.16918 | 0.69118 | 31212 ft | 414 kts | 157° |
| 2026-05-01 10:17 | 44.01262 | 0.79264 | 31206 ft | 413 kts | 157° |
| 2026-05-01 10:18 | 43.89591 | 0.87468 | 31198 ft | 416 kts | 143° |
| 2026-05-01 10:19 | 43.85742 | 0.93477 | 31210 ft | 421 kts | 126° |
| 2026-05-01 10:19 | 43.79538 | 1.06889 | 31203 ft | 423 kts | 125° |
| 2026-05-01 10:20 | 43.69834 | 1.27361 | 31209 ft | 425 kts | 126° |
| 2026-05-01 10:20 | 43.65716 | 1.35330 | 31215 ft | 424 kts | 131° |
| 2026-05-01 10:21 | 43.54469 | 1.54297 | 31211 ft | 427 kts | 131° |
| 2026-05-01 10:22 | 43.43196 | 1.73444 | 31205 ft | 430 kts | 132° |
| 2026-05-01 10:23 | 43.34256 | 1.86990 | 31220 ft | 421 kts | 155° |
| 2026-05-01 10:23 | 43.28725 | 1.89030 | 31240 ft | 409 kts | 179° |
| 2026-05-01 10:23 | 43.23269 | 1.89476 | 31215 ft | 411 kts | 180° |
| 2026-05-01 10:24 | 43.00447 | 1.91551 | 31215 ft | 413 kts | 180° |
| 2026-05-01 10:25 | 42.77440 | 1.93741 | 31228 ft | 413 kts | 180° |
| 2026-05-01 10:26 | 42.67686 | 1.94695 | 31227 ft | 414 kts | 177° |
| 2026-05-01 10:27 | 42.48836 | 2.01363 | 31245 ft | 414 kts | 169° |
| 2026-05-01 10:28 | 42.33666 | 2.06803 | 31250 ft | 413 kts | 169° |
| 2026-05-01 10:28 | 42.17026 | 2.12697 | 31279 ft | 412 kts | 170° |
| 2026-05-01 10:29 | 42.00358 | 2.18574 | 31268 ft | 414 kts | 170° |
| 2026-05-01 10:30 | 41.78076 | 2.26383 | 31252 ft | 417 kts | 170° |
| 2026-05-01 10:31 | 41.56981 | 2.33736 | 31241 ft | 419 kts | 171° |
| 2026-05-01 10:32 | 41.40088 | 2.39592 | 31232 ft | 417 kts | 171° |
| 2026-05-01 10:33 | 41.17729 | 2.47294 | 31234 ft | 414 kts | 171° |
| 2026-05-01 10:33 | 41.11477 | 2.49445 | 31212 ft | 396 kts | 171° |
| 2026-05-01 10:34 | 41.08826 | 2.50357 | 31220 ft | 390 kts | 171° |
| 2026-05-01 10:34 | 41.03576 | 2.52148 | 31127 ft | 392 kts | 172° |
| 2026-05-01 10:35 | 40.98319 | 2.53939 | 30518 ft | 386 kts | 171° |
| 2026-05-01 10:35 | 40.95720 | 2.54827 | 30166 ft | 383 kts | 171° |
| 2026-05-01 10:35 | 40.93154 | 2.55702 | 29769 ft | 380 kts | 171° |
| 2026-05-01 10:35 | 40.90603 | 2.56571 | 29407 ft | 375 kts | 171° |
| 2026-05-01 10:36 | 40.85591 | 2.58276 | 28659 ft | 369 kts | 171° |
| 2026-05-01 10:36 | 40.83116 | 2.59116 | 28292 ft | 366 kts | 171° |
| 2026-05-01 10:36 | 40.80662 | 2.59948 | 27931 ft | 363 kts | 171° |
| 2026-05-01 10:37 | 40.78216 | 2.60778 | 27578 ft | 360 kts | 171° |
| 2026-05-01 10:37 | 40.73428 | 2.62399 | 26883 ft | 355 kts | 171° |
| 2026-05-01 10:37 | 40.71013 | 2.63216 | 26531 ft | 352 kts | 171° |
| 2026-05-01 10:38 | 40.68670 | 2.64008 | 26187 ft | 350 kts | 171° |
| 2026-05-01 10:38 | 40.66318 | 2.64802 | 25847 ft | 348 kts | 171° |
| 2026-05-01 10:38 | 40.63979 | 2.65592 | 25508 ft | 346 kts | 171° |
| 2026-05-01 10:38 | 40.61651 | 2.66377 | 25172 ft | 345 kts | 170° |
| 2026-05-01 10:39 | 40.59327 | 2.67160 | 24839 ft | 343 kts | 170° |
| 2026-05-01 10:39 | 40.57041 | 2.67931 | 24504 ft | 342 kts | 170° |
| 2026-05-01 10:39 | 40.54714 | 2.68714 | 24166 ft | 340 kts | 170° |
| 2026-05-01 10:39 | 40.52451 | 2.69475 | 23824 ft | 340 kts | 170° |
| 2026-05-01 10:40 | 40.50165 | 2.70265 | 23435 ft | 340 kts | 166° |
| 2026-05-01 10:40 | 40.47990 | 2.71532 | 22948 ft | 346 kts | 156° |
| 2026-05-01 10:40 | 40.45890 | 2.73070 | 22584 ft | 345 kts | 154° |
| 2026-05-01 10:40 | 40.43810 | 2.74643 | 22219 ft | 343 kts | 154° |
| 2026-05-01 10:41 | 40.41748 | 2.76195 | 21871 ft | 341 kts | 154° |
| 2026-05-01 10:41 | 40.39694 | 2.77719 | 21532 ft | 339 kts | 155° |
| 2026-05-01 10:41 | 40.35598 | 2.80709 | 20875 ft | 334 kts | 155° |
| 2026-05-01 10:42 | 40.33564 | 2.82181 | 20549 ft | 332 kts | 155° |
| 2026-05-01 10:42 | 40.31540 | 2.83642 | 20219 ft | 331 kts | 155° |
| 2026-05-01 10:42 | 40.29533 | 2.85088 | 19901 ft | 329 kts | 155° |
| 2026-05-01 10:42 | 40.27531 | 2.86530 | 19582 ft | 328 kts | 155° |
| 2026-05-01 10:43 | 40.25535 | 2.87966 | 19256 ft | 326 kts | 155° |
| 2026-05-01 10:43 | 40.23550 | 2.89392 | 18937 ft | 325 kts | 154° |
| 2026-05-01 10:43 | 40.21569 | 2.90816 | 18611 ft | 325 kts | 154° |
| 2026-05-01 10:43 | 40.19575 | 2.92253 | 18137 ft | 327 kts | 154° |
| 2026-05-01 10:44 | 40.17610 | 2.93670 | 17794 ft | 325 kts | 154° |
| 2026-05-01 10:44 | 40.15626 | 2.95102 | 17448 ft | 324 kts | 154° |
| 2026-05-01 10:44 | 40.13660 | 2.96519 | 17126 ft | 322 kts | 154° |
| 2026-05-01 10:44 | 40.11707 | 2.97927 | 16802 ft | 319 kts | 154° |
| 2026-05-01 10:45 | 40.09768 | 2.99322 | 16486 ft | 317 kts | 154° |
| 2026-05-01 10:45 | 40.07861 | 3.00693 | 16176 ft | 315 kts | 154° |
| 2026-05-01 10:45 | 40.05916 | 3.01956 | 15851 ft | 309 kts | 166° |
| 2026-05-01 10:45 | 40.03818 | 3.02271 | 15564 ft | 300 kts | 188° |
| 2026-05-01 10:46 | 40.01815 | 3.01651 | 15273 ft | 294 kts | 200° |
| 2026-05-01 10:46 | 39.99887 | 3.00793 | 14964 ft | 292 kts | 201° |
| 2026-05-01 10:46 | 39.97971 | 2.99911 | 14663 ft | 291 kts | 201° |
| 2026-05-01 10:46 | 39.96065 | 2.99038 | 14356 ft | 289 kts | 201° |
| 2026-05-01 10:47 | 39.94164 | 2.98177 | 14068 ft | 288 kts | 201° |
| 2026-05-01 10:47 | 39.92558 | 2.97456 | 13789 ft | 287 kts | 201° |
| 2026-05-01 10:47 | 39.90695 | 2.96624 | 13472 ft | 285 kts | 200° |
| 2026-05-01 10:47 | 39.88829 | 2.95796 | 13181 ft | 282 kts | 200° |
| 2026-05-01 10:48 | 39.86972 | 2.94973 | 12864 ft | 281 kts | 200° |
| 2026-05-01 10:48 | 39.85125 | 2.94157 | 12559 ft | 279 kts | 201° |
| 2026-05-01 10:48 | 39.83423 | 2.93048 | 12287 ft | 272 kts | 219° |
| 2026-05-01 10:48 | 39.82172 | 2.91232 | 11995 ft | 269 kts | 236° |
| 2026-05-01 10:49 | 39.81129 | 2.89215 | 11686 ft | 268 kts | 236° |
| 2026-05-01 10:49 | 39.80100 | 2.87225 | 11546 ft | 262 kts | 236° |
| 2026-05-01 10:49 | 39.79091 | 2.85291 | 11415 ft | 255 kts | 236° |
| 2026-05-01 10:49 | 39.78105 | 2.83407 | 11294 ft | 248 kts | 235° |
| 2026-05-01 10:50 | 39.77175 | 2.81635 | 11123 ft | 244 kts | 235° |
| 2026-05-01 10:50 | 39.76228 | 2.79835 | 10865 ft | 243 kts | 235° |
| 2026-05-01 10:50 | 39.75255 | 2.77987 | 10625 ft | 242 kts | 235° |
| 2026-05-01 10:50 | 39.74313 | 2.76200 | 10370 ft | 241 kts | 235° |
| 2026-05-01 10:51 | 39.73360 | 2.74394 | 10068 ft | 243 kts | 235° |
| 2026-05-01 10:51 | 39.72402 | 2.72581 | 9777 ft | 243 kts | 235° |
| 2026-05-01 10:51 | 39.71456 | 2.70789 | 9567 ft | 240 kts | 235° |
| 2026-05-01 10:51 | 39.70509 | 2.68994 | 9301 ft | 240 kts | 235° |
| 2026-05-01 10:52 | 39.69567 | 2.67208 | 9041 ft | 239 kts | 235° |
| 2026-05-01 10:52 | 39.68629 | 2.65430 | 8802 ft | 236 kts | 236° |
| 2026-05-01 10:52 | 39.67715 | 2.63698 | 8550 ft | 230 kts | 236° |
| 2026-05-01 10:52 | 39.66828 | 2.62019 | 8297 ft | 225 kts | 236° |
| 2026-05-01 10:53 | 39.65956 | 2.60367 | 8045 ft | 219 kts | 236° |
| 2026-05-01 10:53 | 39.65105 | 2.58756 | 7814 ft | 213 kts | 236° |
| 2026-05-01 10:53 | 39.64271 | 2.57181 | 7605 ft | 208 kts | 236° |
| 2026-05-01 10:53 | 39.63466 | 2.55659 | 7392 ft | 200 kts | 236° |
| 2026-05-01 10:54 | 39.62690 | 2.54191 | 7171 ft | 194 kts | 236° |
| 2026-05-01 10:54 | 39.61922 | 2.52741 | 6983 ft | 197 kts | 236° |
| 2026-05-01 10:54 | 39.61153 | 2.51288 | 6776 ft | 198 kts | 236° |
| 2026-05-01 10:54 | 39.60367 | 2.49803 | 6431 ft | 203 kts | 236° |
| 2026-05-01 10:55 | 39.59573 | 2.48306 | 6154 ft | 199 kts | 236° |
| 2026-05-01 10:55 | 39.58791 | 2.46831 | 5903 ft | 195 kts | 236° |
| 2026-05-01 10:55 | 39.58033 | 2.45403 | 5696 ft | 190 kts | 236° |
| 2026-05-01 10:55 | 39.57282 | 2.43990 | 5490 ft | 192 kts | 236° |
| 2026-05-01 10:56 | 39.56463 | 2.42613 | 5292 ft | 196 kts | 220° |
| 2026-05-01 10:56 | 39.55285 | 2.41757 | 5110 ft | 198 kts | 198° |
| 2026-05-01 10:56 | 39.53924 | 2.41518 | 4890 ft | 198 kts | 177° |
| 2026-05-01 10:56 | 39.52583 | 2.41901 | 4664 ft | 197 kts | 154° |
| 2026-05-01 10:57 | 39.51443 | 2.42872 | 4469 ft | 195 kts | 143° |
| 2026-05-01 10:57 | 39.50347 | 2.43911 | 4259 ft | 194 kts | 143° |
| 2026-05-01 10:57 | 39.49261 | 2.44924 | 4056 ft | 194 kts | 143° |
| 2026-05-01 10:57 | 39.48166 | 2.45944 | 3867 ft | 193 kts | 143° |
| 2026-05-01 10:58 | 39.47075 | 2.46962 | 3659 ft | 193 kts | 143° |
| 2026-05-01 10:58 | 39.46052 | 2.48071 | 3456 ft | 191 kts | 127° |
| 2026-05-01 10:58 | 39.45647 | 2.49060 | 3304 ft | 188 kts | 99° |
| 2026-05-01 10:58 | 39.45837 | 2.50672 | 3156 ft | 181 kts | 69° |
| 2026-05-01 10:59 | 39.46422 | 2.52699 | 2883 ft | 180 kts | 66° |
| 2026-05-01 10:59 | 39.46761 | 2.53683 | 2749 ft | 174 kts | 66° |
| 2026-05-01 10:59 | 39.47257 | 2.55047 | 2563 ft | 166 kts | 62° |
| 2026-05-01 10:59 | 39.47813 | 2.56352 | 2384 ft | 164 kts | 59° |
| 2026-05-01 11:00 | 39.48394 | 2.57620 | 2218 ft | 163 kts | 58° |
| 2026-05-01 11:00 | 39.48783 | 2.58454 | 2114 ft | 164 kts | 58° |
| 2026-05-01 11:00 | 39.49564 | 2.60119 | 1911 ft | 154 kts | 58° |
| 2026-05-01 11:00 | 39.50116 | 2.61294 | 1787 ft | 160 kts | 58° |
| 2026-05-01 11:01 | 39.50702 | 2.62541 | 1634 ft | 159 kts | 58° |
| 2026-05-01 11:01 | 39.51260 | 2.63729 | 1458 ft | 152 kts | 58° |
| 2026-05-01 11:01 | 39.51797 | 2.64870 | 1233 ft | 148 kts | 58° |
| 2026-05-01 11:01 | 39.52331 | 2.66006 | 1014 ft | 146 kts | 59° |
| 2026-05-01 11:02 | 39.52850 | 2.67097 | 893 ft | 140 kts | 58° |
| 2026-05-01 11:02 | 39.53347 | 2.68150 | 717 ft | 137 kts | 59° |
| 2026-05-01 11:02 | 39.53829 | 2.69187 | 524 ft | 131 kts | 59° |
| 2026-05-01 11:02 | 39.54291 | 2.70177 | 290 ft | 128 kts | 59° |
| 2026-05-01 11:03 | 39.54755 | 2.71154 | 92 ft | 126 kts | 58° |
| 2026-05-01 11:03 | 39.55184 | 2.72063 | 37 ft | 104 kts | 57° |
| 2026-05-01 11:03 | 39.55484 | 2.72694 | 37 ft | 60 kts | 59° |
| 2026-05-01 11:03 | 39.55626 | 2.72994 | 36 ft | 20 kts | 58° |
| 2026-05-01 11:04 | 39.55696 | 2.73145 | 36 ft | 19 kts | 63° |
| 2026-05-01 11:04 | 39.55717 | 2.73321 | 37 ft | 22 kts | 88° |
| 2026-05-01 11:04 | 39.55720 | 2.73480 | 37 ft | 15 kts | 87° |
| 2026-05-01 11:04 | 39.55665 | 2.73521 | 36 ft | 9 kts | 214° |
| 2026-05-01 11:05 | 39.55603 | 2.73518 | 36 ft | 10 kts | 153° |
| 2026-05-01 11:05 | 39.55546 | 2.73563 | 37 ft | 9 kts | 148° |
| 2026-05-01 11:05 | 39.55500 | 2.73575 | 37 ft | 4 kts | 227° |
| 2026-05-01 11:05 | 39.55488 | 2.73541 | 37 ft | 5 kts | 240° |
| 2026-05-01 11:06 | 39.55465 | 2.73490 | 37 ft | 9 kts | 239° |
| 2026-05-01 11:06 | 39.55420 | 2.73394 | 37 ft | 17 kts | 238° |
| 2026-05-01 11:06 | 39.55344 | 2.73236 | 37 ft | 19 kts | 239° |
| 2026-05-01 11:07 | 39.55300 | 2.73031 | 37 ft | 11 kts | 325° |
| 2026-05-01 11:07 | 39.55327 | 2.72952 | 37 ft | 11 kts | 247° |
| 2026-05-01 11:07 | 39.55290 | 2.72871 | 37 ft | 10 kts | 239° |
| 2026-05-01 11:07 | 39.55254 | 2.72792 | 37 ft | 10 kts | 239° |
| 2026-05-01 11:08 | 39.55217 | 2.72716 | 37 ft | 10 kts | 239° |
| 2026-05-01 11:08 | 39.55183 | 2.72641 | 36 ft | 10 kts | 239° |
| 2026-05-01 11:08 | 39.55135 | 2.72602 | 37 ft | 4 kts | 194° |
| 2026-05-01 11:09 | 39.55118 | 2.72597 | 37 ft | 1 kts | 194° |
| 2026-05-01 11:09 | 39.55112 | 2.72595 | 37 ft | 1 kts | 194° |
| 2026-05-01 11:09 | 39.55108 | 2.72593 | 37 ft | 0 kts | 194° |